Time;durP1;ratioP1;P1;durP2;ratioP2;P2;SDS_P1;SDS_P2;PMS_P1;PMS_P2;Temp;Humidity;BMP_temperature;BMP_pressure;BME280_temperature;BME280_humidity;BME280_pressure;Samples;Min_cycle;Max_cycle;Signal;HPM_P1;HPM_P2
2023/04/19 00:00:25;;;;;;;17.60;12.20;;;;;;;9.02;80.17;100289.73;219839;1256;140497;-69
2023/04/19 00:05:49;;;;;;;20.80;13.10;;;;;;;8.98;80.40;100288.18;218155;1256;140182;-70
2023/04/19 00:10:54;;;;;;;10.80;8.80;;;;;;;8.92;80.54;100283.83;217114;1259;612720;-73
2023/04/19 00:15:58;;;;;;;9.70;8.10;;;;;;;8.80;80.57;100279.83;217790;1256;139409;-69
2023/04/19 00:21:04;;;;;;;12.10;8.30;;;;;;;8.71;80.63;100278.02;217965;1259;140599;-71
2023/04/19 00:26:10;;;;;;;12.30;8.80;;;;;;;8.65;80.97;100274.06;217690;1259;140027;-69
2023/04/19 00:31:15;;;;;;;11.20;8.30;;;;;;;8.60;81.02;100265.94;217996;1256;141674;-69
2023/04/19 00:36:19;;;;;;;14.90;9.00;;;;;;;8.55;81.40;100264.28;218196;1256;140919;-69
2023/04/19 00:41:24;;;;;;;12.20;9.20;;;;;;;8.49;81.52;100258.38;217539;1259;140799;-68
2023/04/19 00:46:29;;;;;;;13.00;9.50;;;;;;;8.42;81.50;100262.84;217725;1259;139568;-70
2023/04/19 00:51:34;;;;;;;19.20;10.10;;;;;;;8.27;81.20;100270.53;217737;1259;140712;-70
2023/04/19 00:56:39;;;;;;;16.30;11.00;;;;;;;8.06;81.16;100266.98;217776;1259;140210;-70
2023/04/19 01:01:45;;;;;;;11.30;8.10;;;;;;;7.89;81.10;100262.10;218179;1257;141891;-71
2023/04/19 01:06:50;;;;;;;16.00;10.20;;;;;;;7.70;81.23;100258.33;217788;1259;139132;-69
2023/04/19 01:11:54;;;;;;;11.90;9.00;;;;;;;7.54;81.25;100250.23;218340;1256;140208;-70
2023/04/19 01:16:59;;;;;;;14.70;8.60;;;;;;;7.39;81.72;100244.65;218081;1259;140876;-70
2023/04/19 01:22:05;;;;;;;15.50;9.50;;;;;;;7.28;81.88;100235.10;217728;1257;141006;-70
2023/04/19 01:27:10;;;;;;;13.00;9.80;;;;;;;7.21;82.25;100234.17;217505;1259;139277;-71
2023/04/19 01:32:16;;;;;;;13.30;9.60;;;;;;;7.14;82.46;100232.36;217838;1256;140672;-67
2023/04/19 01:37:20;;;;;;;14.00;10.30;;;;;;;7.07;82.38;100225.00;217844;1257;139623;-67
2023/04/19 01:42:25;;;;;;;14.80;9.60;;;;;;;6.94;81.96;100222.48;217746;1256;139728;-68
2023/04/19 01:47:29;;;;;;;19.70;9.10;;;;;;;6.81;82.36;100219.90;217820;1259;139567;-69
2023/04/19 01:52:33;;;;;;;10.90;9.20;;;;;;;6.73;83.01;100213.55;218806;1257;140667;-69
2023/04/19 01:57:36;;;;;;;12.20;8.90;;;;;;;6.67;82.89;100209.19;217837;1257;140349;-69
2023/04/19 02:02:42;;;;;;;11.80;7.90;;;;;;;6.60;82.82;100210.33;218194;1257;140534;-69
2023/04/19 02:07:46;;;;;;;9.20;6.30;;;;;;;6.51;82.70;100209.50;217793;1255;139614;-69
2023/04/19 02:12:50;;;;;;;15.40;8.70;;;;;;;6.41;82.90;100208.23;217544;1259;139591;-68
2023/04/19 02:17:55;;;;;;;11.40;6.70;;;;;;;6.31;82.77;100205.38;217879;1256;139396;-69
2023/04/19 02:23:00;;;;;;;11.10;7.70;;;;;;;6.15;82.54;100202.14;217715;1259;139414;-68
2023/04/19 02:28:05;;;;;;;10.50;7.50;;;;;;;5.99;82.28;100192.85;217691;1257;139946;-68
2023/04/19 02:33:10;;;;;;;7.60;6.50;;;;;;;5.87;82.45;100191.52;217885;1255;141052;-69
2023/04/19 02:38:16;;;;;;;15.90;8.40;;;;;;;5.76;82.30;100187.94;218206;1259;140296;-69
2023/04/19 02:43:21;;;;;;;10.70;5.70;;;;;;;5.70;83.00;100185.86;218015;1256;139554;-68
2023/04/19 02:48:26;;;;;;;7.80;5.20;;;;;;;5.69;83.04;100183.03;218122;1256;139812;-68
2023/04/19 02:53:30;;;;;;;7.90;6.00;;;;;;;5.67;82.88;100174.64;217742;1256;139788;-68
2023/04/19 02:58:34;;;;;;;11.20;6.50;;;;;;;5.60;82.91;100169.66;217897;1259;141010;-67
2023/04/19 03:03:39;;;;;;;8.20;6.40;;;;;;;5.56;82.82;100163.65;217830;1259;139859;-68
2023/04/19 03:08:44;;;;;;;7.40;5.70;;;;;;;5.50;82.71;100152.86;218509;1257;141235;-69
2023/04/19 03:13:48;;;;;;;11.30;6.20;;;;;;;5.43;82.61;100146.59;218588;1257;141071;-68
2023/04/19 03:18:52;;;;;;;9.30;6.20;;;;;;;5.40;82.84;100144.05;219691;1256;140261;-69
2023/04/19 03:23:56;;;;;;;12.70;6.00;;;;;;;5.41;82.74;100135.47;218582;1257;140113;-71
2023/04/19 03:29:01;;;;;;;18.50;9.10;;;;;;;5.39;82.81;100136.55;217990;1257;140394;-71
2023/04/19 03:34:06;;;;;;;7.90;5.10;;;;;;;5.39;82.66;100135.86;217987;1255;140370;-69
2023/04/19 03:39:10;;;;;;;10.00;4.80;;;;;;;5.39;83.15;100135.89;218699;1259;139707;-68
2023/04/19 03:44:16;;;;;;;7.90;5.20;;;;;;;5.40;82.99;100139.08;218087;1254;139315;-68
2023/04/19 03:49:22;;;;;;;8.40;5.60;;;;;;;5.41;82.98;100130.66;217684;1259;139719;-70
2023/04/19 03:54:27;;;;;;;9.50;5.40;;;;;;;5.40;82.85;100127.29;218063;1256;139427;-68
2023/04/19 03:59:33;;;;;;;6.70;4.20;;;;;;;5.37;82.92;100124.13;217932;1256;139713;-69
2023/04/19 04:04:38;;;;;;;19.80;7.30;;;;;;;5.31;82.84;100124.73;218860;1257;140408;-70
2023/04/19 04:09:44;;;;;;;9.00;5.30;;;;;;;5.25;82.57;100120.36;217694;1256;139642;-69
2023/04/19 04:14:48;;;;;;;6.30;4.30;;;;;;;5.19;82.69;100118.82;217776;1257;139674;-66
2023/04/19 04:19:52;;;;;;;12.60;5.80;;;;;;;5.14;82.61;100116.13;218035;1255;139391;-70
2023/04/19 04:24:57;;;;;;;8.40;5.80;;;;;;;5.12;82.85;100113.95;217836;1259;142421;-69
2023/04/19 04:30:01;;;;;;;10.50;5.60;;;;;;;5.14;83.33;100108.53;217519;1256;142024;-69
2023/04/19 04:35:07;;;;;;;7.90;5.30;;;;;;;5.14;83.18;100099.63;217728;1259;142732;-73
2023/04/19 04:40:11;;;;;;;6.70;5.00;;;;;;;5.09;82.79;100096.09;217520;1259;139242;-71
2023/04/19 04:45:17;;;;;;;8.90;6.40;;;;;;;5.06;82.59;100092.40;218720;1258;140978;-72
2023/04/19 04:50:22;;;;;;;12.60;6.70;;;;;;;5.03;82.96;100085.54;217932;1259;140167;-71
2023/04/19 04:55:27;;;;;;;7.60;5.50;;;;;;;5.04;83.09;100081.56;217737;1259;140567;-70
2023/04/19 05:00:32;;;;;;;10.50;5.50;;;;;;;5.04;82.97;100080.84;217888;1256;140927;-71
2023/04/19 05:05:36;;;;;;;5.80;5.20;;;;;;;5.09;83.07;100077.27;217941;1257;140760;-70
2023/04/19 05:10:40;;;;;;;7.00;4.30;;;;;;;5.16;83.48;100073.59;219389;1256;140400;-70
2023/04/19 05:15:44;;;;;;;9.00;5.80;;;;;;;5.22;83.16;100071.62;218958;1256;139807;-70
2023/04/19 05:20:49;;;;;;;8.10;5.60;;;;;;;5.28;83.17;100075.77;217813;1259;139745;-70
2023/04/19 05:25:55;;;;;;;8.50;5.30;;;;;;;5.35;83.37;100077.42;220550;1255;139757;-69
2023/04/19 05:31:00;;;;;;;7.30;4.90;;;;;;;5.46;82.89;100076.53;220686;1255;140972;-71
2023/04/19 05:36:05;;;;;;;7.50;5.90;;;;;;;5.53;83.12;100074.89;219310;1256;139324;-73
2023/04/19 05:41:11;;;;;;;6.80;6.20;;;;;;;5.61;83.17;100071.90;220641;1256;140242;-74
2023/04/19 05:46:15;;;;;;;6.20;5.30;;;;;;;5.73;83.55;100070.76;218374;1259;140773;-68
2023/04/19 05:51:19;;;;;;;5.70;5.00;;;;;;;5.87;82.96;100069.14;217904;1256;140774;-68
2023/04/19 05:56:24;;;;;;;8.40;6.20;;;;;;;5.99;82.97;100058.42;219207;1254;139821;-70
2023/04/19 06:01:28;;;;;;;8.80;6.00;;;;;;;6.09;82.68;100052.94;217941;1257;139317;-70
2023/04/19 06:06:33;;;;;;;9.60;7.10;;;;;;;6.21;82.84;100051.73;217676;1255;140174;-69
2023/04/19 06:11:37;;;;;;;10.30;6.60;;;;;;;6.33;82.51;100049.42;218183;1254;140167;-71
2023/04/19 06:16:54;;;;;;;7.50;5.20;;;;;;;6.39;82.78;100049.33;217770;1259;140975;-76
2023/04/19 06:22:00;;;;;;;8.10;6.30;;;;;;;6.37;82.59;100047.13;219238;1257;139501;-71
2023/04/19 06:27:05;;;;;;;7.00;5.40;;;;;;;6.30;82.45;100045.14;217800;1259;140223;-70
2023/04/19 06:32:09;;;;;;;10.90;5.80;;;;;;;6.29;82.85;100039.52;217978;1257;140263;-70
2023/04/19 06:37:14;;;;;;;7.80;5.90;;;;;;;6.30;82.45;100038.17;217891;1256;140603;-71
2023/04/19 06:42:19;;;;;;;10.60;7.80;;;;;;;6.34;82.59;100041.36;218175;1257;140238;-71
2023/04/19 06:47:24;;;;;;;8.70;6.30;;;;;;;6.43;82.44;100046.70;218171;1255;139819;-72
2023/04/19 06:52:30;;;;;;;7.30;6.40;;;;;;;6.50;82.50;100046.08;218578;1259;139122;-72
2023/04/19 06:57:35;;;;;;;9.40;6.40;;;;;;;6.53;82.40;100048.03;217786;1256;140328;-72
2023/04/19 07:02:41;;;;;;;11.10;8.70;;;;;;;6.50;82.26;100050.76;218105;1259;140344;-71
2023/04/19 07:07:46;;;;;;;12.70;7.20;;;;;;;6.41;82.05;100050.79;219395;1256;139604;-72
2023/04/19 07:12:51;;;;;;;8.80;6.40;;;;;;;6.36;81.99;100055.42;217799;1257;139742;-68
2023/04/19 07:17:57;;;;;;;8.70;5.80;;;;;;;6.33;82.28;100052.73;219580;1257;139880;-70
2023/04/19 07:23:02;;;;;;;6.80;5.90;;;;;;;6.30;81.89;100047.66;218232;1256;139636;-69
2023/04/19 07:28:07;;;;;;;7.70;6.40;;;;;;;6.24;81.87;100043.48;220323;1256;142272;-72
2023/04/19 07:33:12;;;;;;;9.00;6.50;;;;;;;6.26;82.27;100045.65;218861;1257;139647;-72
2023/04/19 07:38:18;;;;;;;7.20;6.00;;;;;;;6.33;82.49;100047.63;219012;1257;160380;-73
2023/04/19 07:43:22;;;;;;;10.20;6.90;;;;;;;6.37;82.55;100046.14;219965;1257;142470;-68
2023/04/19 07:48:26;;;;;;;11.50;6.70;;;;;;;6.38;82.23;100044.76;217749;1257;141149;-71
2023/04/19 07:53:31;;;;;;;12.60;6.70;;;;;;;6.34;82.07;100044.66;218615;1254;139489;-68
2023/04/19 07:58:37;;;;;;;8.70;6.50;;;;;;;6.34;82.46;100044.02;218027;1256;140566;-71
2023/04/19 08:03:42;;;;;;;11.40;7.10;;;;;;;6.40;82.57;100041.46;218073;1257;139624;-70
2023/04/19 08:08:47;;;;;;;7.10;5.90;;;;;;;6.42;82.31;100037.52;217642;1259;141358;-70
2023/04/19 08:13:52;;;;;;;8.00;6.30;;;;;;;6.47;82.22;100034.20;217648;1257;140548;-70
2023/04/19 08:19:14;;;;;;;7.80;5.70;;;;;;;6.55;82.43;100028.40;217653;1256;139549;-69
2023/04/19 08:24:22;;;;;;;9.10;8.00;;;;;;;6.66;81.89;100024.77;217671;1257;150672;-68
2023/04/19 08:29:26;;;;;;;10.70;6.50;;;;;;;6.79;81.82;100015.30;217896;1260;139812;-68
2023/04/19 08:34:30;;;;;;;10.10;7.20;;;;;;;6.94;81.84;100013.08;218196;1259;140322;-69
2023/04/19 08:39:35;;;;;;;6.70;5.90;;;;;;;7.13;82.16;100010.15;217481;1259;139498;-69
2023/04/19 08:44:41;;;;;;;8.40;6.70;;;;;;;7.25;81.99;100008.97;217413;1259;140486;-68
2023/04/19 08:50:07;;;;;;;12.50;7.40;;;;;;;7.36;81.37;100009.92;217828;1259;139503;-70
2023/04/19 08:55:33;;;;;;;10.70;8.60;;;;;;;7.41;81.39;100014.31;217946;1259;140607;-70
2023/04/19 09:00:39;;;;;;;10.60;7.60;;;;;;;7.39;80.87;100017.42;217450;1256;140776;-70
2023/04/19 09:05:44;;;;;;;8.60;6.70;;;;;;;7.33;80.95;100019.84;218594;1259;140937;-69
2023/04/19 09:10:58;;;;;;;6.90;6.20;;;;;;;7.39;81.24;100020.23;218172;1257;139599;-70
2023/04/19 09:16:03;;;;;;;8.40;6.90;;;;;;;7.40;81.23;100017.09;219442;1260;139446;-72
2023/04/19 09:21:08;;;;;;;7.90;7.20;;;;;;;7.44;81.10;100022.39;220374;1259;140341;-74
2023/04/19 09:26:13;;;;;;;7.00;6.20;;;;;;;7.49;80.61;100018.88;218000;1259;139853;-72
2023/04/19 09:31:32;;;;;;;7.60;5.90;;;;;;;7.57;80.47;100020.70;217645;1257;140287;-72
2023/04/19 09:36:40;;;;;;;6.50;5.90;;;;;;;7.79;80.76;100017.48;219765;1254;140318;-75
2023/04/19 09:41:54;;;;;;;7.70;6.80;;;;;;;7.99;80.88;100016.18;219141;1258;141212;-74
2023/04/19 09:46:59;;;;;;;8.50;6.50;;;;;;;8.25;80.98;100016.91;217330;1257;140746;-83
2023/04/19 09:52:05;;;;;;;6.80;6.20;;;;;;;8.37;80.70;100017.73;217317;1257;139797;-73
2023/04/19 09:57:11;;;;;;;9.80;7.00;;;;;;;8.36;80.05;100019.98;217580;1257;139503;-77
2023/04/19 10:02:18;;;;;;;7.20;6.50;;;;;;;8.30;80.35;100024.52;217735;1257;141528;-72
2023/04/19 10:07:25;;;;;;;9.70;7.50;;;;;;;8.22;80.18;100020.90;217800;1260;139813;-72
2023/04/19 10:12:35;;;;;;;8.00;5.70;;;;;;;8.15;79.69;100019.38;217941;1259;140188;-73
2023/04/19 10:18:05;;;;;;;11.20;6.20;;;;;;;8.03;79.78;100015.34;217691;1257;141354;-74
2023/04/19 10:23:12;;;;;;;9.10;7.50;;;;;;;7.84;79.47;100019.92;218366;1260;140127;-71
2023/04/19 10:28:16;;;;;;;10.20;9.20;;;;;;;7.75;79.88;100017.73;217591;1259;139757;-72
2023/04/19 10:33:25;;;;;;;15.00;10.30;;;;;;;7.67;80.05;100014.94;217635;1257;139928;-72
2023/04/19 10:38:43;;;;;;;9.90;8.70;;;;;;;7.66;80.62;100019.30;217900;1260;139659;-72
2023/04/19 10:43:56;;;;;;;10.50;9.40;;;;;;;7.74;80.67;100020.84;217697;1258;139732;-71
2023/04/19 10:49:03;;;;;;;12.30;9.50;;;;;;;7.80;80.48;100021.20;217751;1257;140456;-72
2023/04/19 10:54:29;;;;;;;11.20;8.50;;;;;;;7.82;80.37;100018.09;217652;1258;139735;-71
2023/04/19 10:59:43;;;;;;;11.20;10.00;;;;;;;7.84;80.67;100029.19;217795;1257;140144;-72
2023/04/19 11:04:51;;;;;;;13.60;10.80;;;;;;;7.91;80.52;100028.52;217838;1258;139916;-72
2023/04/19 11:09:56;;;;;;;10.50;9.40;;;;;;;8.04;80.56;100019.42;217783;1260;139636;-72
2023/04/19 11:15:01;;;;;;;11.60;10.00;;;;;;;8.14;80.45;100015.14;217860;1257;139845;-71
2023/04/19 11:20:09;;;;;;;10.60;9.50;;;;;;;8.17;80.69;100013.65;218678;1256;139958;-71
2023/04/19 11:25:19;;;;;;;14.20;11.00;;;;;;;8.15;81.05;100015.30;217824;1260;139615;-71
2023/04/19 11:30:29;;;;;;;13.60;10.80;;;;;;;8.14;80.46;100011.38;217818;1258;140842;-70
2023/04/19 11:35:34;;;;;;;13.00;11.40;;;;;;;8.11;80.72;100015.47;217824;1260;140507;-72
2023/04/19 11:40:40;;;;;;;14.50;10.90;;;;;;;8.06;80.52;100020.11;217683;1262;139799;-71
2023/04/19 11:45:44;;;;;;;14.70;12.10;;;;;;;8.04;80.57;100028.52;217901;1258;140070;-71
2023/04/19 11:50:49;;;;;;;16.20;12.40;;;;;;;8.03;80.68;100033.44;218710;1260;140096;-71
2023/04/19 11:56:03;;;;;;;14.10;12.20;;;;;;;8.02;80.63;100038.59;217834;1258;140609;-72
2023/04/19 12:01:19;;;;;;;15.20;12.30;;;;;;;8.03;80.62;100040.95;218565;1259;141008;-72
2023/04/19 12:06:26;;;;;;;15.90;13.40;;;;;;;8.07;80.78;100031.46;217797;1258;139598;-71
2023/04/19 12:11:47;;;;;;;13.70;11.80;;;;;;;8.25;80.76;100030.73;216723;1259;1257370;-70
2023/04/19 12:17:14;;;;;;;13.60;11.70;;;;;;;8.43;80.85;100029.42;217688;1260;141424;-71
2023/04/19 12:22:22;;;;;;;15.10;11.50;;;;;;;8.46;80.57;100028.07;218258;1259;141561;-71
2023/04/19 12:27:28;;;;;;;15.10;12.90;;;;;;;8.42;80.56;100028.13;217598;1260;141284;-72
2023/04/19 12:32:33;;;;;;;14.60;11.90;;;;;;;8.39;80.40;100023.80;218211;1256;234166;-74
2023/04/19 12:37:37;;;;;;;17.60;14.60;;;;;;;8.32;80.79;100031.67;217826;1258;142110;-73
2023/04/19 12:42:41;;;;;;;18.70;15.00;;;;;;;8.39;81.14;100022.01;218048;1257;139933;-71
2023/04/19 12:47:47;;;;;;;18.50;13.70;;;;;;;8.55;81.11;100018.20;217825;1259;141890;-71
2023/04/19 12:52:52;;;;;;;14.80;12.80;;;;;;;8.69;80.81;100023.00;217653;1257;141100;-71
2023/04/19 12:57:58;;;;;;;17.40;13.90;;;;;;;8.73;80.91;100026.45;217958;1256;141226;-71
2023/04/19 13:03:03;;;;;;;16.20;13.00;;;;;;;8.76;81.02;100032.48;218898;1258;140846;-71
2023/04/19 13:08:07;;;;;;;13.90;12.40;;;;;;;8.78;80.89;100033.73;218897;1255;140926;-70
2023/04/19 13:13:12;;;;;;;16.90;13.50;;;;;;;8.76;80.84;100034.94;217909;1257;140907;-71
2023/04/19 13:18:18;;;;;;;14.90;13.10;;;;;;;8.74;80.71;100032.91;220595;1256;140867;-73
2023/04/19 13:23:25;;;;;;;12.60;11.20;;;;;;;8.73;80.99;100037.02;220294;1256;140691;-71
2023/04/19 13:28:29;;;;;;;18.20;14.20;;;;;;;8.68;80.82;100035.77;218745;1257;140111;-73
2023/04/19 13:33:34;;;;;;;15.30;13.70;;;;;;;8.62;80.62;100038.66;217612;1260;141432;-73
2023/04/19 13:38:38;;;;;;;15.30;13.10;;;;;;;8.55;80.94;100044.23;217716;1257;139936;-72
2023/04/19 13:43:42;;;;;;;16.00;11.60;;;;;;;8.46;80.87;100045.64;218238;1259;140052;-72
2023/04/19 13:48:47;;;;;;;15.40;13.50;;;;;;;8.38;81.14;100051.81;217809;1257;139964;-70
2023/04/19 13:53:52;;;;;;;18.00;15.00;;;;;;;8.40;81.77;100055.23;218016;1259;233696;-71
2023/04/19 13:58:56;;;;;;;13.40;11.70;;;;;;;8.42;81.59;100050.85;217705;1258;139963;-72
2023/04/19 14:04:03;;;;;;;15.40;12.20;;;;;;;8.40;81.52;100055.30;217728;1257;140027;-71
2023/04/19 14:09:08;;;;;;;13.60;12.10;;;;;;;8.39;81.84;100053.40;217579;1259;141351;-71
2023/04/19 14:14:11;;;;;;;14.20;11.70;;;;;;;8.41;81.77;100054.13;217715;1257;140874;-72
2023/04/19 14:19:17;;;;;;;12.80;10.70;;;;;;;8.47;81.76;100048.46;218509;1257;140064;-73
2023/04/19 14:24:22;;;;;;;12.30;10.90;;;;;;;8.49;81.73;100048.11;217566;1259;140003;-73
2023/04/19 14:29:25;;;;;;;12.70;9.70;;;;;;;8.51;82.00;100050.52;218432;1259;140621;-76
2023/04/19 14:34:31;;;;;;;11.50;10.30;;;;;;;8.59;82.23;100049.76;217749;1257;140451;-77
2023/04/19 14:39:35;;;;;;;9.90;8.70;;;;;;;8.70;82.17;100044.95;217910;1257;141486;-78
2023/04/19 14:44:40;;;;;;;10.40;9.30;;;;;;;8.77;81.99;100039.92;217834;1258;140338;-74
2023/04/19 14:49:43;;;;;;;11.90;7.80;;;;;;;8.89;82.07;100042.60;217822;1254;139578;-73
2023/04/19 14:54:47;;;;;;;11.90;10.10;;;;;;;9.09;81.75;100047.12;217638;1259;141884;-71
2023/04/19 14:59:59;;;;;;;9.10;7.80;;;;;;;9.28;81.58;100042.20;217725;1257;140534;-72
2023/04/19 15:05:05;;;;;;;10.10;6.90;;;;;;;9.49;81.40;100041.30;217842;1254;139510;-71
2023/04/19 15:10:11;;;;;;;7.70;6.40;;;;;;;9.66;81.20;100040.31;218686;1257;140246;-72
2023/04/19 15:15:15;;;;;;;10.10;7.90;;;;;;;9.81;81.08;100033.72;217604;1257;139919;-72
2023/04/19 15:20:19;;;;;;;13.20;8.10;;;;;;;9.91;80.78;100040.44;218442;1257;139975;-72
2023/04/19 15:25:24;;;;;;;9.90;8.50;;;;;;;9.81;80.14;100044.80;220701;1255;139714;-72
2023/04/19 15:30:29;;;;;;;10.20;7.70;;;;;;;9.75;80.36;100049.69;220568;1256;140664;-73
2023/04/19 15:35:34;;;;;;;9.80;7.00;;;;;;;9.78;80.20;100056.11;217963;1256;140189;-73
2023/04/19 15:40:39;;;;;;;9.40;6.80;;;;;;;9.73;79.79;100055.60;217751;1256;140304;-72
2023/04/19 15:45:45;;;;;;;9.80;6.30;;;;;;;9.61;80.03;100053.59;217815;1257;139783;-71
2023/04/19 15:50:50;;;;;;;12.70;7.60;;;;;;;9.52;79.99;100059.70;218113;1257;139562;-72
2023/04/19 15:55:56;;;;;;;15.90;8.70;;;;;;;9.38;80.02;100065.29;218354;1258;140138;-71
2023/04/19 16:01:01;;;;;;;10.50;8.30;;;;;;;9.29;80.20;100072.76;217942;1259;140960;-71
2023/04/19 16:06:08;;;;;;;15.60;9.20;;;;;;;9.24;80.34;100077.34;218459;1257;140449;-71
2023/04/19 16:11:13;;;;;;;14.90;8.90;;;;;;;9.23;80.68;100085.70;218209;1256;140706;-71
2023/04/19 16:16:20;;;;;;;10.70;8.50;;;;;;;9.21;80.72;100084.82;218035;1256;140255;-71
2023/04/19 16:21:40;;;;;;;13.50;9.20;;;;;;;9.17;80.71;100083.27;217824;1257;140654;-72
2023/04/19 16:26:48;;;;;;;12.90;10.30;;;;;;;9.16;80.89;100084.80;217978;1255;140977;-73
2023/04/19 16:31:52;;;;;;;11.10;9.10;;;;;;;9.19;81.17;100080.77;218416;1256;140301;-70
2023/04/19 16:36:57;;;;;;;9.30;8.00;;;;;;;9.21;80.80;100084.08;217863;1257;140031;-71
2023/04/19 16:42:04;;;;;;;11.00;8.70;;;;;;;9.14;80.78;100084.68;218488;1256;140021;-70
2023/04/19 16:47:08;;;;;;;12.30;10.00;;;;;;;9.03;80.92;100093.44;217639;1257;140252;-71
2023/04/19 16:52:14;;;;;;;11.70;9.90;;;;;;;8.95;80.89;100098.55;219151;1255;140509;-71
2023/04/19 16:57:19;;;;;;;10.80;9.70;;;;;;;8.89;81.28;100106.11;217750;1257;140718;-72
2023/04/19 17:02:23;;;;;;;15.90;12.00;;;;;;;8.87;81.55;100109.77;218186;1256;140754;-72
2023/04/19 17:07:27;;;;;;;15.70;12.10;;;;;;;8.86;81.51;100114.08;217481;1257;140793;-72
2023/04/19 17:12:33;;;;;;;13.00;10.50;;;;;;;8.84;81.67;100116.89;220592;1256;140918;-73
2023/04/19 17:17:41;;;;;;;12.50;11.20;;;;;;;8.80;81.41;100123.33;220545;1255;140961;-72
2023/04/19 17:22:49;;;;;;;10.90;9.40;;;;;;;8.70;81.45;100130.16;218972;1256;140754;-70
2023/04/19 17:27:56;;;;;;;;;;;;;;;8.62;81.60;100132.93;218076;1257;140214;-71
2023/04/19 17:33:01;;;;;;;17.90;12.80;;;;;;;8.54;82.02;100138.02;218876;1257;126706;-71
2023/04/19 17:38:06;;;;;;;14.50;12.30;;;;;;;8.48;82.01;100135.96;217915;1257;139800;-71
2023/04/19 17:43:13;;;;;;;19.20;13.50;;;;;;;8.48;82.56;100136.37;218289;1256;141476;-71
2023/04/19 17:48:23;;;;;;;21.80;14.00;;;;;;;8.48;82.35;100139.15;218074;1257;140508;-71
2023/04/19 17:53:29;;;;;;;21.60;15.20;;;;;;;8.49;82.59;100140.66;217727;1256;141250;-71
2023/04/19 17:58:35;;;;;;;22.10;15.10;;;;;;;8.48;82.68;100143.03;218601;1259;141524;-71
2023/04/19 18:03:40;;;;;;;17.90;14.60;;;;;;;8.44;82.86;100150.00;217794;1257;140454;-72
2023/04/19 18:08:48;;;;;;;18.10;13.20;;;;;;;8.41;82.78;100157.02;217638;1256;141623;-72
2023/04/19 18:13:54;;;;;;;17.30;12.40;;;;;;;8.41;83.03;100152.87;217691;1257;140105;-72
2023/04/19 18:19:01;;;;;;;17.10;13.00;;;;;;;8.41;83.19;100152.25;217975;1259;140222;-70
2023/04/19 18:24:08;;;;;;;15.00;9.90;;;;;;;8.35;83.08;100160.07;218012;1256;140717;-72
2023/04/19 18:29:18;;;;;;;19.20;13.40;;;;;;;8.26;83.61;100162.33;217970;1257;139761;-73
2023/04/19 18:34:23;;;;;;;16.60;12.30;;;;;;;8.23;83.52;100162.19;219056;1257;140628;-72
2023/04/19 18:39:27;;;;;;;16.80;13.10;;;;;;;8.23;83.84;100163.77;217587;1257;141196;-72
2023/04/19 18:44:31;;;;;;;21.30;14.80;;;;;;;8.20;83.75;100169.98;217824;1257;140946;-73
2023/04/19 18:49:55;;;;;;;16.50;12.60;;;;;;;8.15;83.78;100166.28;217741;1257;140109;-72
2023/04/19 18:55:03;;;;;;;19.70;14.10;;;;;;;8.12;83.96;100156.85;217801;1259;139790;-72
2023/04/19 19:00:10;;;;;;;17.80;14.40;;;;;;;8.10;84.25;100152.81;217647;1257;140851;-72
2023/04/19 19:05:14;;;;;;;21.90;16.10;;;;;;;8.09;84.27;100152.68;217764;1257;139803;-72
2023/04/19 19:10:19;;;;;;;20.40;16.20;;;;;;;8.10;84.12;100153.34;217729;1256;141341;-73
2023/04/19 19:15:39;;;;;;;24.30;18.00;;;;;;;8.09;84.41;100152.57;220639;1255;140302;-71
2023/04/19 19:20:45;;;;;;;26.10;16.60;;;;;;;8.08;84.28;100144.55;220557;1256;139987;-72
2023/04/19 19:25:51;;;;;;;26.70;15.50;;;;;;;8.09;84.46;100150.94;218161;1255;141449;-70
2023/04/19 19:30:56;;;;;;;28.00;17.80;;;;;;;8.12;84.51;100153.83;220621;1256;140981;-73
2023/04/19 19:36:01;;;;;;;21.80;15.90;;;;;;;8.13;84.64;100155.91;217725;1259;140217;-73
2023/04/19 19:41:05;;;;;;;28.80;17.40;;;;;;;8.10;84.22;100157.95;217685;1257;140940;-74
2023/04/19 19:46:29;;;;;;;28.20;18.30;;;;;;;8.08;84.50;100156.41;218122;1257;248582;-74
2023/04/19 19:51:35;;;;;;;27.10;17.70;;;;;;;8.07;84.79;100158.16;217556;1257;140909;-77
2023/04/19 19:57:00;;;;;;;27.20;19.60;;;;;;;8.07;84.72;100156.33;217884;1257;141165;-72
2023/04/19 20:02:09;;;;;;;26.30;17.10;;;;;;;8.08;84.89;100160.90;218027;1257;139806;-73
2023/04/19 20:07:13;;;;;;;29.70;19.50;;;;;;;8.06;85.09;100163.08;218889;1255;140395;-72
2023/04/19 20:12:20;;;;;;;;;;;;;;;8.07;85.18;100161.77;217545;1256;142048;-75
2023/04/19 20:17:25;;;;;;;27.30;20.90;;;;;;;8.05;85.26;100161.48;218084;1257;128275;-72
2023/04/19 20:22:30;;;;;;;25.80;17.90;;;;;;;8.03;85.41;100158.58;218010;1256;140493;-71
2023/04/19 20:27:34;;;;;;;28.80;18.90;;;;;;;7.97;85.26;100162.55;218380;1255;140962;-72
2023/04/19 20:32:41;;;;;;;27.30;19.30;;;;;;;7.92;85.18;100161.73;217987;1256;141450;-72
2023/04/19 20:37:46;;;;;;;29.60;21.00;;;;;;;7.88;85.64;100163.97;218140;1257;139733;-77
2023/04/19 20:42:50;;;;;;;32.90;21.30;;;;;;;7.88;85.92;100164.05;217943;1254;139617;-75
2023/04/19 20:47:55;;;;;;;38.00;24.10;;;;;;;7.91;86.08;100161.77;217870;1257;141016;-74
2023/04/19 20:52:59;;;;;;;34.50;22.20;;;;;;;7.94;86.04;100164.30;218259;1257;139990;-71
2023/04/19 20:58:04;;;;;;;30.40;22.70;;;;;;;7.92;86.04;100166.74;218932;1256;140524;-70
2023/04/19 21:03:09;;;;;;;32.60;24.10;;;;;;;7.92;86.24;100165.36;220697;1254;140091;-74
2023/04/19 21:08:15;;;;;;;33.60;21.90;;;;;;;7.92;86.09;100165.15;217842;1254;142088;-70
2023/04/19 21:13:23;;;;;;;39.20;22.90;;;;;;;7.92;86.17;100166.67;218040;1256;140731;-71
2023/04/19 21:18:28;;;;;;;39.40;27.10;;;;;;;7.90;86.26;100167.08;218039;1254;139727;-73
2023/04/19 21:23:34;;;;;;;44.80;27.30;;;;;;;7.88;86.14;100171.61;219635;1254;140026;-72
2023/04/19 21:28:40;;;;;;;40.30;27.80;;;;;;;7.86;86.34;100167.07;219329;1254;140395;-70
2023/04/19 21:33:44;;;;;;;46.50;27.90;;;;;;;7.85;86.25;100163.03;217987;1255;141256;-71
2023/04/19 21:38:49;;;;;;;41.90;26.80;;;;;;;7.84;86.70;100166.79;218159;1254;140095;-72
2023/04/19 21:43:54;;;;;;;43.20;25.70;;;;;;;7.85;86.95;100172.55;218694;1257;140665;-73
2023/04/19 21:48:59;;;;;;;37.30;25.90;;;;;;;7.83;86.93;100172.10;218804;1257;140959;-72
2023/04/19 21:54:04;;;;;;;41.60;26.20;;;;;;;7.82;86.87;100169.04;217880;1254;140057;-68
2023/04/19 21:59:08;;;;;;;44.10;27.70;;;;;;;7.83;86.99;100172.64;217966;1256;140634;-71
2023/04/19 22:04:14;;;;;;;41.20;30.20;;;;;;;7.83;86.87;100167.04;217786;1256;139736;-72
2023/04/19 22:09:19;;;;;;;39.60;27.70;;;;;;;7.82;87.20;100169.69;218310;1256;140343;-72
2023/04/19 22:14:23;;;;;;;46.70;27.80;;;;;;;7.79;87.06;100171.94;217787;1258;141464;-71
2023/04/19 22:19:28;;;;;;;44.70;28.30;;;;;;;7.76;87.23;100168.67;217751;1256;140450;-74
2023/04/19 22:24:35;;;;;;;43.20;27.80;;;;;;;7.75;87.52;100171.20;217731;1259;140974;-73
2023/04/19 22:29:56;;;;;;;42.10;26.20;;;;;;;7.73;87.31;100170.42;217982;1258;140900;-76
2023/04/19 22:35:00;;;;;;;48.80;30.30;;;;;;;7.72;87.77;100167.33;217808;1254;154639;-73
2023/04/19 22:40:05;;;;;;;45.40;30.20;;;;;;;7.75;87.64;100165.36;217738;1256;139940;-74
2023/04/19 22:45:09;;;;;;;51.10;29.90;;;;;;;7.75;87.43;100163.08;218147;1256;139535;-74
2023/04/19 22:50:16;;;;;;;48.40;28.20;;;;;;;7.73;87.48;100176.39;218024;1257;140681;-76
2023/04/19 22:55:20;;;;;;;53.40;32.40;;;;;;;7.70;87.37;100164.58;218904;1257;140394;-75
2023/04/19 23:00:25;;;;;;;50.60;32.10;;;;;;;7.71;87.67;100165.89;218293;1256;139781;-72
2023/04/19 23:05:30;;;;;;;42.80;27.50;;;;;;;7.69;87.62;100173.58;217851;1257;139861;-73
2023/04/19 23:10:36;;;;;;;41.70;28.20;;;;;;;7.65;87.46;100169.58;217838;1257;140028;-70